createdAt,value
2022-09-21T00:01:22.386Z,31.10
2022-09-21T00:03:53.881Z,30.87
2022-09-21T00:06:22.975Z,19.93
2022-09-21T00:08:51.118Z,19.47
2022-09-21T00:11:21.074Z,19.33
2022-09-21T00:13:48.697Z,22.57
2022-09-21T00:16:17.071Z,21.97
2022-09-21T00:18:46.006Z,37.93
2022-09-21T00:21:15.748Z,51.97
2022-09-21T00:23:44.343Z,38.77
2022-09-21T00:26:14.364Z,47.93
2022-09-21T00:28:42.624Z,34.83
2022-09-21T00:31:12.336Z,50.77
2022-09-21T00:33:40.839Z,43.60
2022-09-21T00:36:11.455Z,44.70
2022-09-21T00:38:39.487Z,50.27
2022-09-21T00:41:08.996Z,56.77
2022-09-21T00:43:38.620Z,57.27
2022-09-21T00:46:14.030Z,35.67
2022-09-21T00:48:42.090Z,43.50
2022-09-21T00:51:11.435Z,36.33
2022-09-21T00:53:39.771Z,45.27
2022-09-21T00:56:10.452Z,47.70
2022-09-21T00:58:43.836Z,35.77
2022-09-21T01:01:12.987Z,51.00
2022-09-21T01:03:40.635Z,51.07
2022-09-21T01:06:08.215Z,64.53
2022-09-21T01:08:37.753Z,44.97
2022-09-21T01:11:28.098Z,42.47
2022-09-21T01:14:12.646Z,51.20
2022-09-21T01:16:46.359Z,60.03
2022-09-21T01:19:32.709Z,58.40
2022-09-21T01:22:08.326Z,59.07
2022-09-21T01:24:49.655Z,59.73
2022-09-21T01:27:36.038Z,49.50
2022-09-21T01:30:08.364Z,39.40
2022-09-21T01:32:39.616Z,59.67
2022-09-21T01:35:11.784Z,55.90
2022-09-21T01:37:43.879Z,55.57
2022-09-21T01:40:16.538Z,56.00
2022-09-21T01:42:45.911Z,46.73
2022-09-21T01:45:17.238Z,52.43
2022-09-21T01:47:48.463Z,51.87
2022-09-21T01:50:18.016Z,46.23
2022-09-21T01:52:53.143Z,48.30
2022-09-21T01:55:28.420Z,41.63
2022-09-21T01:58:01.011Z,47.10
2022-09-21T02:00:30.877Z,57.37
2022-09-21T02:03:03.111Z,49.33
2022-09-21T02:05:31.122Z,48.70
2022-09-21T02:07:59.604Z,46.23
2022-09-21T02:10:33.180Z,48.20
2022-09-21T02:13:05.580Z,46.70
2022-09-21T02:15:48.252Z,56.30
2022-09-21T02:18:22.799Z,39.30
2022-09-21T02:20:57.047Z,49.67
2022-09-21T02:23:29.040Z,48.63
2022-09-21T02:26:04.171Z,46.53
2022-09-21T02:28:44.346Z,59.00
2022-09-21T02:31:19.241Z,44.90
2022-09-21T02:33:59.740Z,49.60
2022-09-21T02:36:32.546Z,50.57
2022-09-21T02:39:06.212Z,50.43
2022-09-21T02:41:39.696Z,50.33
2022-09-21T02:44:12.788Z,45.27
2022-09-21T02:46:46.677Z,54.20
2022-09-21T02:49:20.773Z,57.07
2022-09-21T02:51:52.832Z,54.03
2022-09-21T02:54:24.927Z,38.83
2022-09-21T02:56:53.953Z,61.27
2022-09-21T02:59:21.626Z,48.00
2022-09-21T03:01:50.482Z,46.03
2022-09-21T03:04:18.547Z,43.80
2022-09-21T03:06:46.001Z,42.13
2022-09-21T03:09:13.487Z,49.73
2022-09-21T03:11:42.354Z,56.83
2022-09-21T03:14:10.046Z,39.40
2022-09-21T03:16:37.915Z,55.13
2022-09-21T03:19:06.800Z,45.93
2022-09-21T03:21:34.272Z,41.87
2022-09-21T03:24:01.895Z,33.77
2022-09-21T03:26:29.688Z,53.93
2022-09-21T03:28:57.396Z,41.10
2022-09-21T03:31:25.032Z,47.93
2022-09-21T03:33:52.626Z,41.00
2022-09-21T03:36:21.883Z,40.03
2022-09-21T03:38:49.924Z,48.67
2022-09-21T03:41:18.093Z,37.13
2022-09-21T03:43:45.568Z,45.73
2022-09-21T03:46:13.151Z,47.37
2022-09-21T03:48:42.354Z,43.67
2022-09-21T03:51:09.888Z,45.40
2022-09-21T03:53:38.710Z,55.37
2022-09-21T03:56:06.411Z,38.40
2022-09-21T03:58:33.891Z,49.60
2022-09-21T04:01:02.627Z,43.40
2022-09-21T04:03:30.475Z,44.87
2022-09-21T04:05:58.002Z,51.67
2022-09-21T04:08:25.474Z,46.43
2022-09-21T04:10:56.234Z,43.87
2022-09-21T04:13:24.726Z,45.90
2022-09-21T04:15:52.311Z,50.70
2022-09-21T04:18:20.159Z,55.73
2022-09-21T04:20:47.754Z,54.67
2022-09-21T04:23:15.220Z,51.03
2022-09-21T04:25:42.706Z,49.07
2022-09-21T04:28:11.552Z,43.43
2022-09-21T04:30:39.040Z,50.13
2022-09-21T04:33:06.582Z,45.97
2022-09-21T04:35:34.142Z,43.80
2022-09-21T04:38:01.847Z,47.97
2022-09-21T04:40:29.361Z,39.23
2022-09-21T04:42:56.863Z,46.63
2022-09-21T04:45:25.757Z,38.20
2022-09-21T04:47:53.226Z,42.97
2022-09-21T04:50:20.734Z,42.97
2022-09-21T04:52:48.643Z,44.07
2022-09-21T04:55:16.859Z,46.63
2022-09-21T04:57:44.331Z,50.97
2022-09-21T05:00:12.775Z,47.03
2022-09-21T05:02:41.581Z,55.37
2022-09-21T05:05:09.449Z,47.07
2022-09-21T05:07:36.920Z,53.93
2022-09-21T05:10:03.820Z,50.27
2022-09-21T05:12:31.513Z,42.03
2022-09-21T05:14:58.998Z,43.10
2022-09-21T05:17:26.631Z,48.10
2022-09-21T05:19:55.525Z,54.23
2022-09-21T05:22:23.315Z,55.97
2022-09-21T05:24:50.801Z,62.10
2022-09-21T05:27:18.266Z,55.93
2022-09-21T05:29:46.324Z,62.53
2022-09-21T05:32:19.879Z,138.37
2022-09-21T05:34:58.908Z,53.57
2022-09-21T05:37:44.242Z,78.67
2022-09-21T05:40:13.772Z,37.20
2022-09-21T05:42:42.210Z,26.63
2022-09-21T05:45:15.212Z,19.63
2022-09-21T05:47:51.736Z,21.93
2022-09-21T05:50:34.362Z,30.40
2022-09-21T05:53:12.608Z,90.70
2022-09-21T05:55:52.670Z,63.03
2022-09-21T05:58:28.069Z,38.50
2022-09-21T06:01:07.541Z,26.58
2022-09-21T06:03:36.184Z,14.90
2022-09-21T06:06:05.312Z,14.05
2022-09-21T06:08:32.812Z,20.55
2022-09-21T06:11:00.452Z,23.77
2022-09-21T06:13:28.296Z,26.02
2022-09-21T06:15:55.719Z,19.02
2022-09-21T06:18:23.156Z,25.30
2022-09-21T06:20:50.664Z,20.90
2022-09-21T06:23:19.445Z,15.73
2022-09-21T06:25:56.050Z,13.98
2022-09-21T06:28:26.518Z,38.92
2022-09-21T06:30:55.046Z,19.10
2022-09-21T06:33:23.560Z,26.05
2022-09-21T06:35:55.327Z,31.33
2022-09-21T06:38:25.624Z,22.48
2022-09-21T06:40:54.008Z,16.90
2022-09-21T06:43:21.715Z,11.63
2022-09-21T06:45:55.140Z,14.15
2022-09-21T06:48:23.695Z,8.02
2022-09-21T06:50:51.616Z,6.18
2022-09-21T06:53:19.130Z,19.42
2022-09-21T06:55:47.897Z,19.50
2022-09-21T06:58:15.438Z,4.47
2022-09-21T07:00:42.906Z,4.20
2022-09-21T07:03:12.001Z,3.28
2022-09-21T07:05:39.505Z,3.92
2022-09-21T07:10:04.895Z,3.97
2022-09-21T07:10:58.854Z,3.78
2022-09-21T07:13:26.496Z,3.65
2022-09-21T07:15:53.991Z,4.22
2022-09-21T07:18:21.807Z,2.95
2022-09-21T07:20:49.508Z,3.67
2022-09-21T07:23:19.168Z,3.30
2022-09-21T07:25:49.104Z,3.08
2022-09-21T07:28:18.199Z,3.10
2022-09-21T07:30:45.776Z,3.35
2022-09-21T07:33:13.239Z,2.78
2022-09-21T07:35:40.673Z,3.60
2022-09-21T07:38:11.382Z,6.18
2022-09-21T07:40:38.843Z,5.60
2022-09-21T07:43:06.450Z,5.90
2022-09-21T07:45:35.264Z,4.05
2022-09-21T07:48:05.905Z,4.07
2022-09-21T07:50:34.598Z,3.78
2022-09-21T07:53:02.419Z,2.97
2022-09-21T07:55:31.248Z,3.70
2022-09-21T07:58:16.404Z,4.00
2022-09-21T08:00:45.247Z,4.93
2022-09-21T08:03:12.900Z,3.60
2022-09-21T08:05:40.352Z,2.92
2022-09-21T08:08:08.102Z,3.15
2022-09-21T08:10:35.981Z,3.55
2022-09-21T08:13:03.539Z,4.47
2022-09-21T08:15:48.962Z,3.00
2022-09-21T08:18:18.813Z,4.20
2022-09-21T08:20:54.415Z,2.65
2022-09-21T08:23:21.913Z,3.30
2022-09-21T08:25:49.371Z,2.60
2022-09-21T08:28:18.438Z,3.15
2022-09-21T08:30:45.902Z,2.75
2022-09-21T08:33:13.508Z,2.20
2022-09-21T08:35:42.276Z,3.13
2022-09-21T08:38:10.027Z,3.15
2022-09-21T08:40:41.699Z,2.78
2022-09-21T08:43:13.194Z,3.15
2022-09-21T08:45:43.241Z,3.08
2022-09-21T08:48:16.267Z,3.65
2022-09-21T08:50:49.338Z,3.10
2022-09-21T08:53:20.548Z,3.55
2022-09-21T08:55:48.324Z,3.13
2022-09-21T08:58:23.763Z,4.53
2022-09-21T09:00:58.120Z,3.05
2022-09-21T09:03:47.749Z,5.20
2022-09-21T09:06:26.870Z,4.72
2022-09-21T09:09:25.301Z,4.63
2022-09-21T09:12:10.828Z,5.18
2022-09-21T09:14:55.074Z,4.03
2022-09-21T09:17:39.859Z,4.47
2022-09-21T09:20:14.198Z,3.70
2022-09-21T09:22:47.287Z,4.00
2022-09-21T09:25:21.705Z,3.65
2022-09-21T09:27:54.220Z,3.95
2022-09-21T09:30:24.685Z,3.95
2022-09-21T09:32:58.705Z,3.15
2022-09-21T09:35:29.664Z,3.33
2022-09-21T09:38:05.949Z,4.55
2022-09-21T09:40:52.735Z,3.92
2022-09-21T09:43:32.616Z,4.18
2022-09-21T09:46:12.707Z,3.22
2022-09-21T09:49:01.999Z,3.65
2022-09-21T09:51:29.496Z,4.10
2022-09-21T09:54:00.965Z,3.65
2022-09-21T09:56:28.550Z,4.10
2022-09-21T09:58:59.794Z,4.50
2022-09-21T10:01:43.849Z,4.40
2022-09-21T10:04:13.404Z,3.67
2022-09-21T10:06:46.049Z,3.83
2022-09-21T10:09:24.488Z,4.22
2022-09-21T10:11:53.596Z,3.85
2022-09-21T10:14:23.767Z,4.13
2022-09-21T10:16:52.903Z,4.10
2022-09-21T10:19:24.135Z,4.20
2022-09-21T10:21:58.075Z,4.55
2022-09-21T10:24:29.437Z,4.32
2022-09-21T10:27:04.569Z,3.83
2022-09-21T10:29:43.544Z,3.95
2022-09-21T10:32:23.456Z,4.20
2022-09-21T10:35:15.887Z,3.58
2022-09-21T10:37:45.474Z,3.17
2022-09-21T10:40:27.224Z,3.20
2022-09-21T10:42:58.545Z,3.28
2022-09-21T10:45:27.611Z,3.70
2022-09-21T10:47:57.863Z,3.05
2022-09-21T10:50:29.086Z,3.40
2022-09-21T10:53:01.160Z,4.20
2022-09-21T10:55:31.989Z,3.75
2022-09-21T10:58:00.775Z,3.47
2022-09-21T11:00:38.335Z,3.65
2022-09-21T11:03:34.595Z,3.13
2022-09-21T11:06:06.927Z,3.25
2022-09-21T11:08:39.388Z,3.13
2022-09-21T11:11:26.558Z,3.30
2022-09-21T11:14:01.015Z,2.72
2022-09-21T11:16:34.280Z,3.15
2022-09-21T11:19:15.898Z,3.53
2022-09-21T11:21:48.020Z,2.50
2022-09-21T11:24:25.198Z,3.28
2022-09-21T11:26:59.134Z,3.92
2022-09-21T11:29:32.398Z,2.88
2022-09-21T11:32:13.291Z,3.33
2022-09-21T11:34:59.146Z,2.33
2022-09-21T11:37:39.912Z,6.32
2022-09-21T11:40:21.843Z,3.25
2022-09-21T11:43:01.853Z,3.25
2022-09-21T11:45:50.644Z,2.90
2022-09-21T11:48:29.363Z,2.65
2022-09-21T11:51:08.716Z,1.90
2022-09-21T11:53:46.698Z,2.90
2022-09-21T11:56:35.481Z,4.38
2022-09-21T11:59:18.015Z,2.10
2022-09-21T12:02:01.989Z,1.92
2022-09-21T12:04:43.290Z,3.28
2022-09-21T12:07:27.510Z,2.10
2022-09-21T12:10:11.527Z,2.65
2022-09-21T12:12:44.552Z,2.70
2022-09-21T12:15:21.438Z,2.00
2022-09-21T12:17:58.493Z,2.92
2022-09-21T12:20:35.835Z,4.20
2022-09-21T12:23:09.588Z,2.72
2022-09-21T12:25:41.772Z,3.90
2022-09-21T12:28:17.421Z,2.35
2022-09-21T12:30:51.022Z,6.05
2022-09-21T12:33:23.459Z,3.55
2022-09-21T12:35:56.837Z,2.92
2022-09-21T12:38:29.362Z,5.10
2022-09-21T12:41:05.187Z,6.15
2022-09-21T12:43:39.201Z,2.58
2022-09-21T12:46:14.372Z,1.98
2022-09-21T12:48:42.381Z,3.10
2022-09-21T12:51:16.718Z,2.85
2022-09-21T12:53:50.861Z,6.57
2022-09-21T12:56:30.779Z,2.28
2022-09-21T12:59:11.911Z,2.40
2022-09-21T13:01:46.821Z,3.58
2022-09-21T13:04:28.904Z,2.97
2022-09-21T13:07:30.008Z,15.38
2022-09-21T13:09:58.649Z,1.88
2022-09-21T13:12:30.489Z,1.52
2022-09-21T13:15:03.752Z,1.92
2022-09-21T13:17:34.181Z,122.13
2022-09-21T13:20:07.120Z,80.65
2022-09-21T13:22:37.307Z,6.50
2022-09-21T13:25:09.276Z,3.17
2022-09-21T13:28:01.489Z,3.22
2022-09-21T13:30:40.950Z,2.15
2022-09-21T13:33:40.657Z,2.80
2022-09-21T13:36:31.155Z,1.67
2022-09-21T13:39:14.283Z,2.45
2022-09-21T13:42:03.786Z,2.70
2022-09-21T13:44:42.372Z,1.85
2022-09-21T13:47:11.267Z,2.33
2022-09-21T13:49:55.894Z,4.70
2022-09-21T13:52:31.470Z,1.55
2022-09-21T13:55:01.769Z,1.95
2022-09-21T13:57:36.791Z,1.70
2022-09-21T14:00:28.496Z,3.72
2022-09-21T14:03:00.484Z,2.00
2022-09-21T14:05:34.917Z,2.65
2022-09-21T14:08:04.337Z,1.80
2022-09-21T14:10:36.079Z,2.60
2022-09-21T14:13:07.369Z,1.70
2022-09-21T14:15:40.646Z,1.80
2022-09-21T14:18:21.389Z,1.63
2022-09-21T14:21:18.329Z,3.05
2022-09-21T14:24:20.198Z,1.73
2022-09-21T14:27:02.682Z,1.60
2022-09-21T14:29:40.255Z,2.33
2022-09-21T14:32:16.872Z,2.00
2022-09-21T14:34:48.271Z,2.47
2022-09-21T14:37:27.555Z,2.05
2022-09-21T14:39:55.910Z,2.13
2022-09-21T14:42:27.268Z,1.98
2022-09-21T14:44:57.820Z,2.30
2022-09-21T14:47:51.949Z,1.95
2022-09-21T14:50:31.999Z,1.60
2022-09-21T14:53:29.292Z,2.30
2022-09-21T14:56:10.096Z,2.08
2022-09-21T14:58:49.967Z,1.90
2022-09-21T15:01:37.277Z,2.60
2022-09-21T15:04:24.292Z,2.00
2022-09-21T15:07:18.532Z,2.50
2022-09-21T15:10:21.823Z,5.80
2022-09-21T15:12:57.244Z,2.40
2022-09-21T15:15:34.672Z,2.03
2022-09-21T15:18:03.752Z,2.85
2022-09-21T15:20:33.064Z,2.45
2022-09-21T15:23:02.051Z,3.75
2022-09-21T15:25:34.396Z,2.83
2022-09-21T15:28:03.901Z,2.08
2022-09-21T15:30:34.060Z,4.63
2022-09-21T15:33:02.987Z,2.22
2022-09-21T15:35:32.528Z,3.20
2022-09-21T15:38:01.764Z,2.70
2022-09-21T15:40:33.160Z,2.22
2022-09-21T15:43:04.409Z,1.77
2022-09-21T15:45:37.189Z,1.70
2022-09-21T15:48:10.043Z,2.28
2022-09-21T15:50:38.984Z,2.25
2022-09-21T15:53:10.513Z,2.00
2022-09-21T15:55:39.389Z,3.60
2022-09-21T15:58:20.754Z,2.67
2022-09-21T16:00:54.931Z,2.58
2022-09-21T16:03:25.833Z,2.28
2022-09-21T16:05:55.374Z,2.10
2022-09-21T16:08:33.009Z,2.00
2022-09-21T16:11:14.997Z,3.08
2022-09-21T16:14:00.967Z,1.92
2022-09-21T16:16:28.778Z,2.67
2022-09-21T16:18:59.906Z,2.30
2022-09-21T16:21:29.147Z,4.28
2022-09-21T16:23:58.617Z,1.65
2022-09-21T16:26:32.194Z,2.13
2022-09-21T16:29:18.947Z,1.80
2022-09-21T16:31:50.169Z,3.85
2022-09-21T16:34:36.727Z,4.30
2022-09-21T16:37:24.162Z,63.25
2022-09-21T16:39:52.858Z,13.52
2022-09-21T16:42:23.110Z,2.65
2022-09-21T16:44:51.418Z,3.08
2022-09-21T16:47:25.158Z,1.80
2022-09-21T16:49:56.392Z,2.80
2022-09-21T16:52:24.506Z,3.28
2022-09-21T16:54:52.288Z,3.80
2022-09-21T16:57:21.356Z,3.13
2022-09-21T16:59:50.259Z,2.35
2022-09-21T17:02:18.834Z,2.80
2022-09-21T17:04:47.872Z,3.17
2022-09-21T17:07:16.652Z,3.92
2022-09-21T17:09:47.455Z,3.42
2022-09-21T17:12:17.485Z,4.20
2022-09-21T17:14:47.281Z,5.97
2022-09-21T17:17:18.641Z,34.47
2022-09-21T17:19:49.649Z,8.23
2022-09-21T17:22:18.061Z,7.90
2022-09-21T17:24:50.931Z,7.78
2022-09-21T17:27:21.366Z,13.13
2022-09-21T17:29:51.106Z,8.80
2022-09-21T17:32:20.654Z,9.50
2022-09-21T17:34:53.198Z,7.15
2022-09-21T17:37:21.772Z,10.50
2022-09-21T17:39:49.814Z,10.03
2022-09-21T17:42:21.093Z,13.87
2022-09-21T17:45:04.982Z,8.07
2022-09-21T17:47:33.947Z,7.28
2022-09-21T17:50:15.416Z,6.27
2022-09-21T17:53:02.267Z,10.37
2022-09-21T17:55:30.895Z,10.07
2022-09-21T17:58:09.843Z,25.07
2022-09-21T18:00:50.396Z,32.57
2022-09-21T18:03:22.737Z,32.10
2022-09-21T18:05:52.682Z,41.77
2022-09-21T18:08:20.539Z,37.80
2022-09-21T18:11:04.247Z,40.03
2022-09-21T18:13:42.513Z,36.33
2022-09-21T18:16:22.710Z,43.37
2022-09-21T18:18:59.454Z,43.53
2022-09-21T18:21:27.995Z,44.80
2022-09-21T18:24:15.383Z,44.37
2022-09-21T18:26:43.684Z,46.10
2022-09-21T18:29:38.919Z,49.80
2022-09-21T18:32:25.231Z,38.13
2022-09-21T18:35:18.344Z,49.13
2022-09-21T18:37:56.682Z,41.03
2022-09-21T18:40:32.972Z,46.43
2022-09-21T18:43:11.667Z,39.57
2022-09-21T18:45:43.751Z,34.67
2022-09-21T18:48:23.415Z,34.60
2022-09-21T18:50:57.719Z,56.90
2022-09-21T18:53:33.851Z,48.63
2022-09-21T18:56:02.257Z,43.13
2022-09-21T18:58:30.924Z,56.60
2022-09-21T19:01:00.249Z,81.90
2022-09-21T19:03:29.904Z,72.90
2022-09-21T19:06:16.097Z,67.97
2022-09-21T19:08:50.272Z,54.87
2022-09-21T19:11:27.414Z,51.77
2022-09-21T19:14:01.718Z,51.37
2022-09-21T19:16:34.854Z,50.07
2022-09-21T19:19:15.544Z,50.90
2022-09-21T19:21:47.647Z,45.80
2022-09-21T19:24:23.991Z,45.90
2022-09-21T19:27:11.953Z,44.03
2022-09-21T19:29:50.185Z,48.20
2022-09-21T19:32:19.439Z,50.53
2022-09-21T19:34:48.550Z,49.47
2022-09-21T19:37:16.206Z,54.70
2022-09-21T19:39:44.143Z,46.50
2022-09-21T19:42:29.907Z,47.17
2022-09-21T19:45:13.498Z,48.30
2022-09-21T19:47:48.084Z,48.33
2022-09-21T19:50:19.564Z,44.57
2022-09-21T19:52:47.692Z,40.07
2022-09-21T19:55:35.065Z,41.10
2022-09-21T19:58:20.752Z,39.97
2022-09-21T20:00:52.885Z,47.23
2022-09-21T20:03:31.237Z,38.20
2022-09-21T20:06:05.935Z,37.27
2022-09-21T20:08:40.192Z,34.40
2022-09-21T20:11:12.607Z,40.67
2022-09-21T20:13:53.014Z,44.40
2022-09-21T20:16:37.187Z,42.67
2022-09-21T20:19:13.119Z,42.87
2022-09-21T20:21:44.258Z,45.30
2022-09-21T20:24:20.293Z,44.63
2022-09-21T20:26:49.970Z,46.40
2022-09-21T20:29:18.163Z,48.63
2022-09-21T20:31:47.280Z,50.33
2022-09-21T20:34:15.477Z,39.93
2022-09-21T20:36:44.250Z,36.70
2022-09-21T20:39:11.758Z,48.83
2022-09-21T20:41:39.532Z,52.17
2022-09-21T20:44:07.021Z,50.37
2022-09-21T20:46:34.459Z,43.10
2022-09-21T20:49:04.678Z,56.23
2022-09-21T20:51:33.838Z,40.77
2022-09-21T20:54:03.059Z,50.50
2022-09-21T20:56:31.300Z,73.07
2022-09-21T20:58:59.267Z,64.97
2022-09-21T21:01:26.863Z,50.10
2022-09-21T21:04:01.474Z,54.63
2022-09-21T21:06:31.112Z,53.00
2022-09-21T21:08:59.068Z,54.83
2022-09-21T21:11:28.420Z,52.30
2022-09-21T21:13:56.731Z,45.00
2022-09-21T21:16:24.577Z,51.63
2022-09-21T21:18:52.099Z,45.10
2022-09-21T21:21:19.530Z,49.63
2022-09-21T21:24:07.690Z,47.17
2022-09-21T21:26:57.765Z,45.67
2022-09-21T21:29:24.491Z,50.17
2022-09-21T21:31:51.997Z,54.97
2022-09-21T21:34:19.479Z,60.27
2022-09-21T21:36:46.974Z,56.07
2022-09-21T21:39:14.521Z,55.60
2022-09-21T21:41:43.671Z,46.83
2022-09-21T21:44:11.393Z,43.03
2022-09-21T21:46:39.207Z,41.87
2022-09-21T21:49:07.014Z,42.13
2022-09-21T21:51:34.541Z,43.87
2022-09-21T21:54:02.330Z,50.07
2022-09-21T21:56:29.804Z,43.93
2022-09-21T21:58:58.648Z,47.90
2022-09-21T22:01:28.049Z,44.30
2022-09-21T22:03:57.105Z,49.70
2022-09-21T22:06:25.153Z,53.10
2022-09-21T22:08:53.260Z,48.23
2022-09-21T22:11:22.190Z,48.93
2022-09-21T22:13:50.334Z,57.27
2022-09-21T22:16:22.010Z,51.90
2022-09-21T22:18:50.692Z,56.30
2022-09-21T22:21:21.482Z,48.57
2022-09-21T22:23:53.038Z,41.77
2022-09-21T22:26:21.588Z,59.93
2022-09-21T22:28:51.128Z,45.30
2022-09-21T22:31:21.625Z,57.40
2022-09-21T22:33:49.870Z,54.70
2022-09-21T22:36:19.426Z,48.80
2022-09-21T22:38:47.905Z,49.50
2022-09-21T22:41:17.877Z,56.87
2022-09-21T22:43:46.177Z,52.77
2022-09-21T22:46:14.294Z,55.13
2022-09-21T22:48:43.622Z,43.47
2022-09-21T22:51:11.442Z,56.60
2022-09-21T22:53:39.508Z,54.87
2022-09-21T22:56:09.381Z,49.97
2022-09-21T22:58:39.919Z,55.00
2022-09-21T23:01:10.366Z,59.23
2022-09-21T23:03:39.029Z,48.60
2022-09-21T23:06:10.239Z,55.40
2022-09-21T23:08:38.881Z,46.80
2022-09-21T23:11:08.016Z,68.03
2022-09-21T23:13:35.537Z,57.63
2022-09-21T23:16:04.625Z,55.43
2022-09-21T23:18:32.751Z,49.67
2022-09-21T23:21:01.492Z,50.93
2022-09-21T23:23:31.316Z,44.87
2022-09-21T23:26:03.562Z,62.80
2022-09-21T23:28:31.062Z,50.97
2022-09-21T23:31:00.275Z,54.43
2022-09-21T23:33:32.273Z,64.00
2022-09-21T23:36:00.097Z,58.37
2022-09-21T23:38:29.321Z,78.00
2022-09-21T23:41:06.453Z,65.57
2022-09-21T23:43:35.115Z,62.03
2022-09-21T23:46:02.930Z,60.43
2022-09-21T23:48:30.881Z,59.40
2022-09-21T23:50:59.393Z,61.97
2022-09-21T23:53:28.357Z,55.27
2022-09-21T23:55:57.457Z,61.07
2022-09-21T23:58:27.414Z,59.93
